createdAt,value
2018-08-28T00:01:01.820Z,9.96
2018-08-28T00:03:29.504Z,10.06
2018-08-28T00:05:57.285Z,10.42
2018-08-28T00:08:25.292Z,10.19
2018-08-28T00:10:52.985Z,10.38
2018-08-28T00:13:20.667Z,10.25
2018-08-28T00:15:48.747Z,9.89
2018-08-28T00:18:16.462Z,9.69
2018-08-28T00:20:44.149Z,9.91
2018-08-28T00:23:12.121Z,9.73
2018-08-28T00:25:39.801Z,10.09
2018-08-28T00:28:07.488Z,10.27
2018-08-28T00:30:35.565Z,9.92
2018-08-28T00:33:03.283Z,10.03
2018-08-28T00:35:31.126Z,10.07
2018-08-28T00:37:59.179Z,9.98
2018-08-28T00:40:26.907Z,9.83
2018-08-28T00:42:54.859Z,10.17
2018-08-28T00:45:22.854Z,9.99
2018-08-28T00:47:50.537Z,9.81
2018-08-28T00:50:18.202Z,10.35
2018-08-28T00:52:46.162Z,10.12
2018-08-28T00:55:13.835Z,10.32
2018-08-28T00:57:41.540Z,10.02
2018-08-28T01:00:09.536Z,9.99
2018-08-28T01:02:37.204Z,10.08
2018-08-28T01:05:05.040Z,10.03
2018-08-28T01:07:33.002Z,10.25
2018-08-28T01:10:00.666Z,10.53
2018-08-28T01:12:28.387Z,10.53
2018-08-28T01:14:56.369Z,10.09
2018-08-28T01:17:24.065Z,10.21
2018-08-28T01:19:51.727Z,10.34
2018-08-28T01:22:19.843Z,10.56
2018-08-28T01:24:47.540Z,10.19
2018-08-28T01:27:15.234Z,10.09
2018-08-28T01:29:43.242Z,10.05
2018-08-28T01:32:10.933Z,10.07
2018-08-28T01:34:38.639Z,10.02
2018-08-28T01:37:06.699Z,9.99
2018-08-28T01:39:34.473Z,9.87
2018-08-28T01:42:02.255Z,9.84
2018-08-28T01:44:30.375Z,9.83
2018-08-28T01:46:58.135Z,9.98
2018-08-28T01:49:25.801Z,10.20
2018-08-28T01:51:53.884Z,10.28
2018-08-28T01:54:21.572Z,10.29
2018-08-28T01:56:49.249Z,10.37
2018-08-28T01:59:17.301Z,10.35
2018-08-28T02:01:45.014Z,10.19
2018-08-28T02:04:12.694Z,10.22
2018-08-28T02:06:40.688Z,10.15
2018-08-28T02:09:08.382Z,10.26
2018-08-28T02:11:36.104Z,9.98
2018-08-28T02:14:04.117Z,9.95
2018-08-28T02:16:31.861Z,9.95
2018-08-28T02:19:00.034Z,9.84
2018-08-28T02:21:28.045Z,9.92
2018-08-28T02:23:55.780Z,9.84
2018-08-28T02:26:23.602Z,9.90
2018-08-28T02:28:51.584Z,9.84
2018-08-28T02:31:19.260Z,9.93
2018-08-28T02:33:47.078Z,9.81
2018-08-28T02:36:15.120Z,9.86
2018-08-28T02:38:42.810Z,9.78
2018-08-28T02:41:10.503Z,9.87
2018-08-28T02:43:38.570Z,9.86
2018-08-28T02:46:06.259Z,9.79
2018-08-28T02:48:33.945Z,9.79
2018-08-28T02:51:01.974Z,9.78
2018-08-28T02:53:29.662Z,9.71
2018-08-28T02:55:57.330Z,10.12
2018-08-28T02:58:25.303Z,10.21
2018-08-28T03:00:52.982Z,10.14
2018-08-28T03:03:20.686Z,9.95
2018-08-28T03:05:48.486Z,9.77
2018-08-28T03:08:16.190Z,9.70
2018-08-28T03:10:43.919Z,9.70
2018-08-28T03:13:11.720Z,9.54
2018-08-28T03:15:39.527Z,9.47
2018-08-28T03:18:07.175Z,9.60
2018-08-28T03:20:34.995Z,9.54
2018-08-28T03:23:02.997Z,9.53
2018-08-28T03:25:30.683Z,9.65
2018-08-28T03:27:58.464Z,9.84
2018-08-28T03:30:26.152Z,9.81
2018-08-28T03:32:53.829Z,9.72
2018-08-28T03:35:21.635Z,9.70
2018-08-28T03:37:49.316Z,9.65
2018-08-28T03:40:17.011Z,9.57
2018-08-28T03:42:44.815Z,9.76
2018-08-28T03:45:12.497Z,9.96
2018-08-28T03:47:40.198Z,10.17
2018-08-28T03:50:08.009Z,9.73
2018-08-28T03:52:35.683Z,9.70
2018-08-28T03:55:03.427Z,9.64
2018-08-28T03:57:31.232Z,9.45
2018-08-28T03:59:58.917Z,9.41
2018-08-28T04:02:26.654Z,9.40
2018-08-28T04:04:54.517Z,9.54
2018-08-28T04:07:22.186Z,9.55
2018-08-28T04:09:49.852Z,9.86
2018-08-28T04:12:17.625Z,9.77
2018-08-28T04:14:45.323Z,10.06
2018-08-28T04:17:13.091Z,9.78
2018-08-28T04:19:40.827Z,9.70
2018-08-28T04:22:08.535Z,9.91
2018-08-28T04:24:36.194Z,10.03
2018-08-28T04:27:04.009Z,10.05
2018-08-28T04:29:31.698Z,9.93
2018-08-28T04:31:59.360Z,9.96
2018-08-28T04:34:27.151Z,10.20
2018-08-28T04:36:54.870Z,10.20
2018-08-28T04:39:22.538Z,10.20
2018-08-28T04:41:50.366Z,10.34
2018-08-28T04:44:18.116Z,10.27
2018-08-28T04:46:45.788Z,10.33
2018-08-28T04:49:13.605Z,10.31
2018-08-28T04:51:41.347Z,10.13
2018-08-28T04:54:09.036Z,10.29
2018-08-28T04:56:36.861Z,10.32
2018-08-28T04:59:04.647Z,10.22
2018-08-28T05:01:32.326Z,10.12
2018-08-28T05:04:00.114Z,10.07
2018-08-28T05:06:27.810Z,10.31
2018-08-28T05:08:55.479Z,10.18
2018-08-28T05:11:23.271Z,10.24
2018-08-28T05:13:50.965Z,10.24
2018-08-28T05:16:18.654Z,10.22
2018-08-28T05:18:46.469Z,10.32
2018-08-28T05:21:14.179Z,10.32
2018-08-28T05:23:41.838Z,10.29
2018-08-28T05:26:09.606Z,10.14
2018-08-28T05:28:37.384Z,10.28
2018-08-28T05:31:05.294Z,10.49
2018-08-28T05:33:33.093Z,10.54
2018-08-28T05:36:00.815Z,10.59
2018-08-28T05:38:28.552Z,10.60
2018-08-28T05:40:56.377Z,10.51
2018-08-28T05:43:24.038Z,10.40
2018-08-28T05:45:51.733Z,10.60
2018-08-28T05:48:19.540Z,10.65
2018-08-28T05:50:47.220Z,10.64
2018-08-28T05:53:14.872Z,10.73
2018-08-28T05:55:42.716Z,10.48
2018-08-28T05:58:10.358Z,10.68
2018-08-28T06:00:38.082Z,10.73
2018-08-28T06:03:06.179Z,10.77
2018-08-28T06:05:33.803Z,10.73
2018-08-28T06:08:01.571Z,10.85
2018-08-28T06:10:29.577Z,11.00
2018-08-28T06:12:57.296Z,10.83
2018-08-28T06:15:25.012Z,10.89
2018-08-28T06:17:52.984Z,10.84
2018-08-28T06:20:20.677Z,10.88
2018-08-28T06:22:48.345Z,10.88
2018-08-28T06:25:16.350Z,10.92
2018-08-28T06:27:44.030Z,10.92
2018-08-28T06:30:11.752Z,10.98
2018-08-28T06:32:39.599Z,11.06
2018-08-28T06:35:07.266Z,11.10
2018-08-28T06:37:34.941Z,11.15
2018-08-28T06:40:02.856Z,11.25
2018-08-28T06:42:30.521Z,11.27
2018-08-28T06:44:58.194Z,11.29
2018-08-28T06:47:26.146Z,11.33
2018-08-28T06:49:53.836Z,11.26
2018-08-28T06:52:21.509Z,11.27
2018-08-28T06:54:49.355Z,11.34
2018-08-28T06:57:17.078Z,11.34
2018-08-28T06:59:44.772Z,11.46
2018-08-28T07:02:12.662Z,11.42
2018-08-28T07:04:40.398Z,11.47
2018-08-28T07:07:08.464Z,11.51
2018-08-28T07:09:36.340Z,11.49
2018-08-28T07:12:04.056Z,11.64
2018-08-28T07:14:31.749Z,11.69
2018-08-28T07:16:59.607Z,11.78
2018-08-28T07:19:27.263Z,11.85
2018-08-28T07:21:54.926Z,11.86
2018-08-28T07:24:22.748Z,11.82
2018-08-28T07:26:50.438Z,11.80
2018-08-28T07:29:18.104Z,11.87
2018-08-28T07:31:45.973Z,11.99
2018-08-28T07:34:13.649Z,12.09
2018-08-28T07:36:41.291Z,12.05
2018-08-28T07:39:09.149Z,12.18
2018-08-28T07:41:36.787Z,12.16
2018-08-28T07:44:04.606Z,12.28
2018-08-28T07:46:33.322Z,12.44
2018-08-28T07:49:00.969Z,12.43
2018-08-28T07:51:28.648Z,12.39
2018-08-28T07:53:56.539Z,12.42
2018-08-28T07:56:24.160Z,12.45
2018-08-28T07:58:51.845Z,12.45
2018-08-28T08:01:19.756Z,12.49
2018-08-28T08:03:47.358Z,12.50
2018-08-28T08:06:15.004Z,12.64
2018-08-28T08:08:42.833Z,12.65
2018-08-28T08:11:10.496Z,12.69
2018-08-28T08:13:38.152Z,12.73
2018-08-28T08:16:06.100Z,12.79
2018-08-28T08:18:33.785Z,12.82
2018-08-28T08:21:01.454Z,12.82
2018-08-28T08:23:29.302Z,12.84
2018-08-28T08:25:56.986Z,12.85
2018-08-28T08:28:24.737Z,12.86
2018-08-28T08:30:52.468Z,12.91
2018-08-28T08:33:20.126Z,12.92
2018-08-28T08:35:47.774Z,12.93
2018-08-28T08:38:15.538Z,12.97
2018-08-28T08:40:43.196Z,13.00
2018-08-28T08:43:10.865Z,13.02
2018-08-28T08:45:38.626Z,13.08
2018-08-28T08:48:06.306Z,13.11
2018-08-28T08:50:34.029Z,13.13
2018-08-28T08:53:01.820Z,12.49
2018-08-28T08:55:29.499Z,13.19
2018-08-28T08:57:57.170Z,13.20
2018-08-28T09:00:24.953Z,13.25
2018-08-28T09:02:52.607Z,13.29
2018-08-28T09:05:20.732Z,13.28
2018-08-28T09:07:48.502Z,13.33
2018-08-28T09:10:16.208Z,13.35
2018-08-28T09:12:44.047Z,13.40
2018-08-28T09:15:11.710Z,13.50
2018-08-28T09:17:39.389Z,13.48
2018-08-28T09:20:07.370Z,12.00
2018-08-28T09:22:35.065Z,13.57
2018-08-28T09:25:02.837Z,13.61
2018-08-28T09:27:30.681Z,13.74
2018-08-28T09:29:58.377Z,13.75
2018-08-28T09:32:26.172Z,13.73
2018-08-28T09:34:53.980Z,13.75
2018-08-28T09:37:21.669Z,13.74
2018-08-28T09:39:49.350Z,13.76
2018-08-28T09:42:17.197Z,13.78
2018-08-28T09:44:44.874Z,13.79
2018-08-28T09:47:12.562Z,13.94
2018-08-28T09:49:40.481Z,14.01
2018-08-28T09:52:08.158Z,14.02
2018-08-28T09:54:36.775Z,13.99
2018-08-28T09:57:04.685Z,14.00
2018-08-28T09:59:32.373Z,14.04
2018-08-28T10:02:00.035Z,13.99
2018-08-28T10:04:28.022Z,14.04
2018-08-28T10:06:55.742Z,14.20
2018-08-28T10:09:23.427Z,14.10
2018-08-28T10:11:51.404Z,14.16
2018-08-28T10:14:19.088Z,14.14
2018-08-28T10:16:46.757Z,14.12
2018-08-28T10:19:14.710Z,14.12
2018-08-28T10:21:42.355Z,14.17
2018-08-28T10:24:10.026Z,14.20
2018-08-28T10:26:37.859Z,14.22
2018-08-28T10:29:05.632Z,14.31
2018-08-28T10:31:33.317Z,14.42
2018-08-28T10:34:01.218Z,14.53
2018-08-28T10:36:28.861Z,14.50
2018-08-28T10:38:56.522Z,14.47
2018-08-28T10:41:24.358Z,14.45
2018-08-28T10:43:52.017Z,14.44
2018-08-28T10:46:19.752Z,14.49
2018-08-28T10:48:47.643Z,14.52
2018-08-28T10:51:16.302Z,14.53
2018-08-28T10:53:43.956Z,14.54
2018-08-28T10:56:11.801Z,14.57
2018-08-28T10:58:39.499Z,14.64
2018-08-28T11:01:07.573Z,14.73
2018-08-28T11:03:35.385Z,14.63
2018-08-28T11:06:03.054Z,14.66
2018-08-28T11:08:30.737Z,14.67
2018-08-28T11:10:58.566Z,14.77
2018-08-28T11:13:26.220Z,14.73
2018-08-28T11:15:53.871Z,14.73
2018-08-28T11:18:21.694Z,14.79
2018-08-28T11:20:49.417Z,14.73
2018-08-28T11:23:17.076Z,14.71
2018-08-28T11:25:44.890Z,14.71
2018-08-28T11:28:12.588Z,14.70
2018-08-28T11:30:40.232Z,14.78
2018-08-28T11:33:08.083Z,14.77
2018-08-28T11:35:35.788Z,14.78
2018-08-28T11:38:03.444Z,14.78
2018-08-28T11:40:31.325Z,14.78
2018-08-28T11:42:58.974Z,14.86
2018-08-28T11:45:26.615Z,14.81
2018-08-28T11:47:54.435Z,14.80
2018-08-28T11:50:22.116Z,14.78
2018-08-28T11:52:49.758Z,14.82
2018-08-28T11:55:17.578Z,14.83
2018-08-28T11:57:45.240Z,14.83
2018-08-28T12:00:13.666Z,14.82
2018-08-28T12:02:41.516Z,14.83
2018-08-28T12:05:09.289Z,14.88
2018-08-28T12:07:36.886Z,14.86
2018-08-28T12:10:04.901Z,14.85
2018-08-28T12:12:32.545Z,14.86
2018-08-28T12:15:00.221Z,14.92
2018-08-28T12:17:28.066Z,14.92
2018-08-28T12:19:55.791Z,15.03
2018-08-28T12:22:23.485Z,15.05
2018-08-28T12:24:51.325Z,15.09
2018-08-28T12:27:19.022Z,15.01
2018-08-28T12:29:46.873Z,14.99
2018-08-28T12:32:14.632Z,15.08
2018-08-28T12:34:42.275Z,15.03
2018-08-28T12:37:10.002Z,14.99
2018-08-28T12:39:37.801Z,14.99
2018-08-28T12:42:05.475Z,14.95
2018-08-28T12:44:33.150Z,14.94
2018-08-28T12:47:00.930Z,14.93
2018-08-28T12:49:28.586Z,14.89
2018-08-28T12:51:56.265Z,14.90
2018-08-28T12:54:24.077Z,14.94
2018-08-28T12:56:51.737Z,14.94
2018-08-28T12:59:19.394Z,14.91
2018-08-28T13:01:47.213Z,14.92
2018-08-28T13:04:14.888Z,14.98
2018-08-28T13:06:42.588Z,14.96
2018-08-28T13:09:10.472Z,14.96
2018-08-28T13:11:39.194Z,14.98
2018-08-28T13:14:06.890Z,15.00
2018-08-28T13:16:34.713Z,15.01
2018-08-28T13:19:02.694Z,15.00
2018-08-28T13:21:30.372Z,15.03
2018-08-28T13:23:58.221Z,15.03
2018-08-28T13:26:25.925Z,15.06
2018-08-28T13:28:53.644Z,15.08
2018-08-28T13:31:21.641Z,15.14
2018-08-28T13:33:49.393Z,15.09
2018-08-28T13:36:17.116Z,15.12
2018-08-28T13:38:44.936Z,15.19
2018-08-28T13:41:12.610Z,15.21
2018-08-28T13:43:40.316Z,15.22
2018-08-28T13:46:08.136Z,15.26
2018-08-28T13:48:35.884Z,15.27
2018-08-28T13:51:03.574Z,15.07
2018-08-28T13:53:31.354Z,15.29
2018-08-28T13:55:59.029Z,15.28
2018-08-28T13:58:26.764Z,15.31
2018-08-28T14:00:54.624Z,15.32
2018-08-28T14:03:22.324Z,15.31
2018-08-28T14:05:49.994Z,15.31
2018-08-28T14:08:17.777Z,15.33
2018-08-28T14:10:45.445Z,15.31
2018-08-28T14:13:13.268Z,15.31
2018-08-28T14:15:40.929Z,15.33
2018-08-28T14:18:08.632Z,15.35
2018-08-28T14:20:36.328Z,15.34
2018-08-28T14:23:04.141Z,15.31
2018-08-28T14:25:31.820Z,15.29
2018-08-28T14:27:59.547Z,15.27
2018-08-28T14:30:27.352Z,15.29
2018-08-28T14:32:55.024Z,15.27
2018-08-28T14:35:22.725Z,15.28
2018-08-28T14:37:50.522Z,15.28
2018-08-28T14:40:18.186Z,15.32
2018-08-28T14:42:45.891Z,15.32
2018-08-28T14:45:13.690Z,15.32
2018-08-28T14:47:41.377Z,15.37
2018-08-28T14:50:09.170Z,15.36
2018-08-28T14:52:36.953Z,15.37
2018-08-28T14:55:04.724Z,15.39
2018-08-28T14:57:32.429Z,15.40
2018-08-28T15:00:00.233Z,15.43
2018-08-28T15:02:27.900Z,15.43
2018-08-28T15:04:55.596Z,15.44
2018-08-28T15:07:23.392Z,15.45
2018-08-28T15:09:51.078Z,15.47
2018-08-28T15:12:18.810Z,15.47
2018-08-28T15:14:46.610Z,15.50
2018-08-28T15:17:14.373Z,15.53
2018-08-28T15:19:42.059Z,15.53
2018-08-28T15:22:09.849Z,15.56
2018-08-28T15:24:37.531Z,15.57
2018-08-28T15:27:05.338Z,15.56
2018-08-28T15:29:33.127Z,15.56
2018-08-28T15:32:00.836Z,15.57
2018-08-28T15:34:28.536Z,15.56
2018-08-28T15:36:56.340Z,15.60
2018-08-28T15:39:24.010Z,15.60
2018-08-28T15:41:51.704Z,15.60
2018-08-28T15:44:19.685Z,15.61
2018-08-28T15:46:47.394Z,15.62
2018-08-28T15:49:15.071Z,15.66
2018-08-28T15:51:43.133Z,15.61
2018-08-28T15:54:10.772Z,15.63
2018-08-28T15:56:38.465Z,15.62
2018-08-28T15:59:06.548Z,15.62
2018-08-28T16:01:34.237Z,15.61
2018-08-28T16:04:01.921Z,15.64
2018-08-28T16:06:30.008Z,15.53
2018-08-28T16:08:57.720Z,15.58
2018-08-28T16:11:25.413Z,15.55
2018-08-28T16:13:53.211Z,15.52
2018-08-28T16:16:20.862Z,15.54
2018-08-28T16:18:48.565Z,15.51
2018-08-28T16:21:16.374Z,15.49
2018-08-28T16:23:45.897Z,15.51
2018-08-28T16:26:13.562Z,15.54
2018-08-28T16:28:41.428Z,15.58
2018-08-28T16:31:09.128Z,15.53
2018-08-28T16:33:36.790Z,15.50
2018-08-28T16:36:04.582Z,15.49
2018-08-28T16:38:32.249Z,15.49
2018-08-28T16:40:59.975Z,15.51
2018-08-28T16:43:27.882Z,15.47
2018-08-28T16:45:55.610Z,15.43
2018-08-28T16:48:23.370Z,15.45
2018-08-28T16:50:51.126Z,15.50
2018-08-28T16:53:18.835Z,15.42
2018-08-28T16:55:46.584Z,15.49
2018-08-28T16:58:14.406Z,15.50
2018-08-28T17:00:42.131Z,15.45
2018-08-28T17:03:09.807Z,15.36
2018-08-28T17:05:37.631Z,15.43
2018-08-28T17:08:05.314Z,15.42
2018-08-28T17:10:33.090Z,15.40
2018-08-28T17:13:00.946Z,15.36
2018-08-28T17:15:28.649Z,15.43
2018-08-28T17:17:56.872Z,15.37
2018-08-28T17:20:24.783Z,15.39
2018-08-28T17:22:52.449Z,15.35
2018-08-28T17:25:20.342Z,15.41
2018-08-28T17:27:48.197Z,15.43
2018-08-28T17:30:15.961Z,15.45
2018-08-28T17:32:43.656Z,15.46
2018-08-28T17:35:11.530Z,15.41
2018-08-28T17:37:39.222Z,15.29
2018-08-28T17:40:06.962Z,15.29
2018-08-28T17:42:34.866Z,15.32
2018-08-28T17:45:02.575Z,15.22
2018-08-28T17:47:30.250Z,15.34
2018-08-28T17:49:58.094Z,15.30
2018-08-28T17:52:25.830Z,15.35
2018-08-28T17:54:53.537Z,15.34
2018-08-28T17:57:21.351Z,15.33
2018-08-28T17:59:49.055Z,15.31
2018-08-28T18:02:16.820Z,15.31
2018-08-28T18:04:44.649Z,15.31
2018-08-28T18:07:12.367Z,15.28
2018-08-28T18:09:40.075Z,15.30
2018-08-28T18:12:07.901Z,15.20
2018-08-28T18:14:35.600Z,15.19
2018-08-28T18:17:03.305Z,15.18
2018-08-28T18:19:31.110Z,15.27
2018-08-28T18:21:58.830Z,15.24
2018-08-28T18:24:26.512Z,15.22
2018-08-28T18:26:54.352Z,15.25
2018-08-28T18:29:22.038Z,15.22
2018-08-28T18:31:49.726Z,15.22
2018-08-28T18:34:17.559Z,15.27
2018-08-28T18:36:45.340Z,15.27
2018-08-28T18:39:13.068Z,15.26
2018-08-28T18:41:40.936Z,15.26
2018-08-28T18:44:08.602Z,15.21
2018-08-28T18:46:36.332Z,15.21
2018-08-28T18:49:04.605Z,15.15
2018-08-28T18:51:32.317Z,15.21
2018-08-28T18:54:00.025Z,15.24
2018-08-28T18:56:27.878Z,15.15
2018-08-28T18:58:55.586Z,15.15
2018-08-28T19:01:23.289Z,15.12
2018-08-28T19:03:51.098Z,14.98
2018-08-28T19:06:18.826Z,14.97
2018-08-28T19:08:46.585Z,15.12
2018-08-28T19:11:14.435Z,15.13
2018-08-28T19:13:42.205Z,15.12
2018-08-28T19:16:09.913Z,15.12
2018-08-28T19:18:37.742Z,15.07
2018-08-28T19:21:05.495Z,15.05
2018-08-28T19:23:33.184Z,15.09
2018-08-28T19:26:01.036Z,15.09
2018-08-28T19:28:28.748Z,15.03
2018-08-28T19:30:56.440Z,14.88
2018-08-28T19:33:24.348Z,14.85
2018-08-28T19:35:52.060Z,14.85
2018-08-28T19:38:19.752Z,14.96
2018-08-28T19:40:47.625Z,14.88
2018-08-28T19:43:15.376Z,14.83
2018-08-28T19:45:43.520Z,14.95
2018-08-28T19:48:11.358Z,14.82
2018-08-28T19:50:39.075Z,14.72
2018-08-28T19:53:06.763Z,14.78
2018-08-28T19:55:34.606Z,14.91
2018-08-28T19:58:02.301Z,14.99
2018-08-28T20:00:30.019Z,15.04
2018-08-28T20:02:57.882Z,14.96
2018-08-28T20:05:25.561Z,14.95
2018-08-28T20:07:53.246Z,14.98
2018-08-28T20:10:21.106Z,14.84
2018-08-28T20:12:48.795Z,14.88
2018-08-28T20:15:16.478Z,14.89
2018-08-28T20:17:44.389Z,14.95
2018-08-28T20:20:12.161Z,14.83
2018-08-28T20:22:39.853Z,14.89
2018-08-28T20:25:07.770Z,14.93
2018-08-28T20:27:35.482Z,14.97
2018-08-28T20:30:03.274Z,15.02
2018-08-28T20:32:31.142Z,15.06
2018-08-28T20:34:58.965Z,15.06
2018-08-28T20:37:26.752Z,15.05
2018-08-28T20:39:54.733Z,15.06
2018-08-28T20:42:22.402Z,14.99
2018-08-28T20:44:50.246Z,14.99
2018-08-28T20:47:18.082Z,14.91
2018-08-28T20:49:45.782Z,14.88
2018-08-28T20:52:13.453Z,14.82
2018-08-28T20:54:41.284Z,14.80
2018-08-28T20:57:08.949Z,14.72
2018-08-28T20:59:36.627Z,14.72
2018-08-28T21:02:04.638Z,14.68
2018-08-28T21:04:32.274Z,14.68
2018-08-28T21:07:00.000Z,14.67
2018-08-28T21:09:27.698Z,14.66
2018-08-28T21:11:55.343Z,14.69
2018-08-28T21:14:22.955Z,14.75
2018-08-28T21:16:50.694Z,14.87
2018-08-28T21:19:18.711Z,14.78
2018-08-28T21:21:46.333Z,14.81
2018-08-28T21:24:14.100Z,14.95
2018-08-28T21:26:41.742Z,14.91
2018-08-28T21:29:09.385Z,14.95
2018-08-28T21:31:37.121Z,14.95
2018-08-28T21:34:04.847Z,15.00
2018-08-28T21:36:32.503Z,14.98
2018-08-28T21:39:00.231Z,14.93
2018-08-28T21:41:27.919Z,14.76
2018-08-28T21:43:55.543Z,14.81
2018-08-28T21:46:23.275Z,14.78
2018-08-28T21:48:50.921Z,14.85
2018-08-28T21:51:18.539Z,14.74
2018-08-28T21:53:46.308Z,14.77
2018-08-28T21:56:13.929Z,14.72
2018-08-28T21:58:41.574Z,14.75
2018-08-28T22:01:11.916Z,14.88
2018-08-28T22:03:40.727Z,14.82
2018-08-28T22:06:14.005Z,14.72
2018-08-28T22:08:41.726Z,14.80
2018-08-28T22:11:09.355Z,14.75
2018-08-28T22:13:37.684Z,14.73
2018-08-28T22:16:05.347Z,14.68
2018-08-28T22:18:32.992Z,14.64
2018-08-28T22:21:00.724Z,14.70
2018-08-28T22:23:28.411Z,14.73
2018-08-28T22:25:56.054Z,14.67
2018-08-28T22:28:23.786Z,14.68
2018-08-28T22:30:51.427Z,14.60
2018-08-28T22:33:19.059Z,14.61
2018-08-28T22:35:46.814Z,14.58
2018-08-28T22:38:14.491Z,14.68
2018-08-28T22:40:42.131Z,14.60
2018-08-28T22:43:09.882Z,14.64
2018-08-28T22:45:37.503Z,14.66
2018-08-28T22:48:05.487Z,14.63
2018-08-28T22:50:33.233Z,14.56
2018-08-28T22:53:00.863Z,14.65
2018-08-28T22:55:28.498Z,14.72
2018-08-28T22:57:56.283Z,14.68
2018-08-28T23:00:24.021Z,14.61
2018-08-28T23:02:53.517Z,14.58
2018-08-28T23:05:21.555Z,14.62
2018-08-28T23:07:49.502Z,14.75
2018-08-28T23:10:17.262Z,14.69
2018-08-28T23:12:45.025Z,14.70
2018-08-28T23:15:12.841Z,14.64
2018-08-28T23:17:40.607Z,14.67
2018-08-28T23:20:08.352Z,14.62
2018-08-28T23:22:36.088Z,14.60
2018-08-28T23:25:03.869Z,14.65
2018-08-28T23:27:31.762Z,14.57
2018-08-28T23:29:59.493Z,14.63
2018-08-28T23:32:27.251Z,14.71
2018-08-28T23:34:54.964Z,14.69
2018-08-28T23:37:22.682Z,14.61
2018-08-28T23:39:50.419Z,14.71
2018-08-28T23:42:18.170Z,14.66
2018-08-28T23:44:45.913Z,14.64
2018-08-28T23:47:13.652Z,14.58
2018-08-28T23:49:41.389Z,14.64
2018-08-28T23:52:09.116Z,14.59
2018-08-28T23:54:36.839Z,14.60
2018-08-28T23:57:04.598Z,14.62
2018-08-28T23:59:32.350Z,14.72
